createdAt,value
2022-11-17T00:00:42.307Z,12.53
2022-11-17T00:03:16.097Z,12.63
2022-11-17T00:05:44.499Z,12.55
2022-11-17T00:08:12.551Z,12.68
2022-11-17T00:10:40.200Z,12.59
2022-11-17T00:13:29.162Z,12.67
2022-11-17T00:15:57.156Z,12.61
2022-11-17T00:18:43.157Z,12.21
2022-11-17T00:21:19.142Z,12.24
2022-11-17T00:23:47.945Z,12.10
2022-11-17T00:26:17.465Z,11.77
2022-11-17T00:28:45.475Z,11.81
2022-11-17T00:31:33.302Z,11.89
2022-11-17T00:34:07.399Z,12.12
2022-11-17T00:36:37.084Z,12.16
2022-11-17T00:39:06.141Z,11.77
2022-11-17T00:41:33.891Z,12.05
2022-11-17T00:44:01.586Z,11.77
2022-11-17T00:46:29.813Z,11.44
2022-11-17T00:48:57.596Z,11.77
2022-11-17T00:51:25.648Z,12.02
2022-11-17T00:53:53.640Z,12.00
2022-11-17T00:56:21.450Z,11.98
2022-11-17T00:58:49.268Z,11.70
2022-11-17T01:01:17.800Z,11.71
2022-11-17T01:03:45.630Z,11.42
2022-11-17T01:06:16.212Z,11.00
2022-11-17T01:08:44.545Z,11.54
2022-11-17T01:11:19.533Z,11.63
2022-11-17T01:13:48.207Z,11.60
2022-11-17T01:16:18.715Z,11.39
2022-11-17T01:18:48.677Z,10.95
2022-11-17T01:21:19.861Z,10.87
2022-11-17T01:23:49.024Z,11.21
2022-11-17T01:26:21.856Z,11.26
2022-11-17T01:28:50.074Z,10.99
2022-11-17T01:31:29.729Z,11.30
2022-11-17T01:33:57.870Z,10.73
2022-11-17T01:36:51.868Z,10.98
2022-11-17T01:39:19.832Z,11.50
2022-11-17T01:41:47.939Z,11.08
2022-11-17T01:44:40.514Z,10.68
2022-11-17T01:47:20.628Z,10.91
2022-11-17T01:49:52.210Z,11.13
2022-11-17T01:52:21.120Z,11.12
2022-11-17T01:54:49.299Z,10.36
2022-11-17T01:57:29.516Z,10.59
2022-11-17T02:00:02.207Z,10.43
2022-11-17T02:02:33.898Z,10.54
2022-11-17T02:05:33.169Z,10.46
2022-11-17T02:08:04.630Z,10.66
2022-11-17T02:10:34.405Z,10.80
2022-11-17T02:13:03.191Z,11.05
2022-11-17T02:15:31.657Z,10.96
2022-11-17T02:18:00.678Z,10.85
2022-11-17T02:20:37.824Z,10.97
2022-11-17T02:23:51.664Z,10.65
2022-11-17T02:26:34.547Z,10.77
2022-11-17T02:29:11.619Z,10.65
2022-11-17T02:32:03.349Z,10.55
2022-11-17T02:34:30.804Z,10.91
2022-11-17T02:37:11.076Z,10.52
2022-11-17T02:39:47.501Z,10.70
2022-11-17T02:42:47.715Z,10.86
2022-11-17T02:45:24.979Z,11.00
2022-11-17T02:47:56.183Z,11.13
2022-11-17T02:50:28.563Z,10.92
2022-11-17T02:52:57.136Z,11.17
2022-11-17T02:55:24.953Z,11.04
2022-11-17T02:57:52.638Z,10.96
2022-11-17T03:00:21.165Z,11.10
2022-11-17T03:02:57.931Z,11.19
2022-11-17T03:05:38.088Z,11.32
2022-11-17T03:08:11.658Z,11.31
2022-11-17T03:11:02.871Z,11.29
2022-11-17T03:13:40.569Z,11.40
2022-11-17T03:16:29.624Z,11.25
2022-11-17T03:19:02.186Z,11.41
2022-11-17T03:21:33.372Z,11.33
2022-11-17T03:24:32.938Z,11.25
2022-11-17T03:27:06.379Z,11.14
2022-11-17T03:29:37.177Z,11.23
2022-11-17T03:32:06.667Z,10.89
2022-11-17T03:34:41.566Z,11.10
2022-11-17T03:37:12.032Z,11.02
2022-11-17T03:39:48.469Z,11.11
2022-11-17T03:42:27.518Z,11.32
2022-11-17T03:45:04.600Z,11.17
2022-11-17T03:47:34.628Z,11.20
2022-11-17T03:50:05.715Z,11.18
2022-11-17T03:52:36.095Z,11.35
2022-11-17T03:55:05.166Z,11.38
2022-11-17T03:57:37.497Z,11.30
2022-11-17T04:00:12.060Z,11.18
2022-11-17T04:02:45.071Z,11.06
2022-11-17T04:05:16.625Z,11.04
2022-11-17T04:07:45.218Z,11.13
2022-11-17T04:10:21.883Z,10.85
2022-11-17T04:13:08.164Z,10.90
2022-11-17T04:15:55.226Z,11.09
2022-11-17T04:18:24.088Z,11.08
2022-11-17T04:20:57.342Z,10.92
2022-11-17T04:23:25.974Z,10.94
2022-11-17T04:26:15.257Z,10.97
2022-11-17T04:28:46.293Z,10.65
2022-11-17T04:31:17.139Z,10.90
2022-11-17T04:33:50.274Z,10.99
2022-11-17T04:36:21.114Z,10.91
2022-11-17T04:38:51.150Z,10.81
2022-11-17T04:41:39.391Z,10.86
2022-11-17T04:44:09.034Z,10.73
2022-11-17T04:46:38.337Z,10.68
2022-11-17T04:49:07.151Z,10.84
2022-11-17T04:51:36.029Z,10.81
2022-11-17T04:54:05.234Z,10.82
2022-11-17T04:56:32.981Z,10.54
2022-11-17T04:59:00.631Z,10.75
2022-11-17T05:01:28.996Z,10.69
2022-11-17T05:04:02.257Z,10.82
2022-11-17T05:06:35.854Z,10.86
2022-11-17T05:09:07.435Z,10.76
2022-11-17T05:11:54.012Z,10.79
2022-11-17T05:14:23.974Z,10.84
2022-11-17T05:17:11.167Z,10.76
2022-11-17T05:19:40.886Z,10.83
2022-11-17T05:22:28.601Z,10.81
2022-11-17T05:24:56.786Z,10.77
2022-11-17T05:27:25.174Z,10.71
2022-11-17T05:29:53.370Z,10.82
2022-11-17T05:32:21.143Z,10.63
2022-11-17T05:34:49.246Z,10.85
2022-11-17T05:37:16.994Z,10.72
2022-11-17T05:39:44.616Z,11.04
2022-11-17T05:42:12.663Z,11.02
2022-11-17T05:44:40.364Z,11.10
2022-11-17T05:47:08.679Z,11.04
2022-11-17T05:49:36.623Z,10.89
2022-11-17T05:52:04.405Z,10.86
2022-11-17T05:54:32.073Z,11.01
2022-11-17T05:57:14.807Z,11.01
2022-11-17T05:59:50.602Z,11.10
2022-11-17T06:02:29.224Z,11.10
2022-11-17T06:04:57.213Z,11.15
2022-11-17T06:07:24.959Z,11.08
2022-11-17T06:09:53.405Z,11.10
2022-11-17T06:12:21.301Z,11.16
2022-11-17T06:14:48.949Z,10.78
2022-11-17T06:17:33.858Z,10.85
2022-11-17T06:20:08.563Z,10.79
2022-11-17T06:22:36.500Z,10.69
2022-11-17T06:25:08.069Z,10.77
2022-11-17T06:27:36.986Z,10.34
2022-11-17T06:30:06.160Z,10.54
2022-11-17T06:32:37.339Z,10.48
2022-11-17T06:35:08.829Z,10.78
2022-11-17T06:37:36.464Z,10.74
2022-11-17T06:40:04.611Z,10.52
2022-11-17T06:42:51.303Z,10.80
2022-11-17T06:45:18.892Z,10.21
2022-11-17T06:47:46.893Z,10.35
2022-11-17T06:50:14.628Z,10.27
2022-11-17T06:52:42.327Z,10.46
2022-11-17T06:55:10.844Z,10.32
2022-11-17T06:57:38.579Z,10.66
2022-11-17T07:00:07.248Z,10.69
2022-11-17T07:02:36.816Z,10.67
2022-11-17T07:05:05.116Z,10.62
2022-11-17T07:07:33.055Z,10.74
2022-11-17T07:10:01.159Z,10.54
2022-11-17T07:12:28.847Z,10.50
2022-11-17T07:14:56.589Z,10.63
2022-11-17T07:17:24.677Z,10.35
2022-11-17T07:19:53.712Z,10.51
2022-11-17T07:22:21.486Z,10.09
2022-11-17T07:24:49.535Z,10.24
2022-11-17T07:27:17.255Z,10.10
2022-11-17T07:29:45.147Z,10.21
2022-11-17T07:32:14.284Z,10.51
2022-11-17T07:34:42.688Z,10.61
2022-11-17T07:37:10.340Z,10.52
2022-11-17T07:39:38.828Z,10.66
2022-11-17T07:42:06.656Z,10.66
2022-11-17T07:44:34.520Z,10.55
2022-11-17T07:47:02.563Z,10.65
2022-11-17T07:49:30.261Z,10.30
2022-11-17T07:51:58.061Z,10.37
2022-11-17T07:54:26.010Z,10.35
2022-11-17T07:56:53.773Z,10.40
2022-11-17T07:59:21.892Z,10.60
2022-11-17T08:01:50.077Z,10.53
2022-11-17T08:04:18.097Z,9.80
2022-11-17T08:06:45.848Z,10.23
2022-11-17T08:09:15.601Z,10.45
2022-11-17T08:11:44.213Z,10.41
2022-11-17T08:14:11.949Z,10.03
2022-11-17T08:16:39.547Z,10.34
2022-11-17T08:19:07.631Z,10.72
2022-11-17T08:21:36.873Z,10.79
2022-11-17T08:24:04.827Z,10.91
2022-11-17T08:26:32.830Z,10.54
2022-11-17T08:29:01.991Z,10.68
2022-11-17T08:31:29.700Z,10.84
2022-11-17T08:33:58.833Z,10.98
2022-11-17T08:36:26.943Z,11.15
2022-11-17T08:38:55.732Z,11.14
2022-11-17T08:41:23.852Z,11.19
2022-11-17T08:43:51.838Z,10.98
2022-11-17T08:46:19.723Z,11.34
2022-11-17T08:48:52.201Z,11.52
2022-11-17T08:51:23.330Z,11.41
2022-11-17T08:53:51.253Z,11.43
2022-11-17T08:56:18.943Z,11.40
2022-11-17T08:58:46.636Z,11.50
2022-11-17T09:01:16.785Z,11.36
2022-11-17T09:03:46.663Z,11.43
2022-11-17T09:06:16.780Z,11.44
2022-11-17T09:08:46.623Z,11.40
2022-11-17T09:11:16.855Z,11.54
2022-11-17T09:13:45.938Z,11.36
2022-11-17T09:16:14.744Z,11.34
2022-11-17T09:18:43.197Z,11.51
2022-11-17T09:21:15.600Z,11.73
2022-11-17T09:23:43.780Z,11.73
2022-11-17T09:26:13.921Z,11.67
2022-11-17T09:28:42.483Z,11.54
2022-11-17T09:31:21.588Z,11.47
2022-11-17T09:33:49.372Z,11.72
2022-11-17T09:36:17.443Z,11.72
2022-11-17T09:38:46.832Z,11.61
2022-11-17T09:41:32.643Z,11.73
2022-11-17T09:44:18.299Z,11.64
2022-11-17T09:47:13.396Z,11.72
2022-11-17T09:50:22.309Z,11.85
2022-11-17T09:53:10.175Z,11.87
2022-11-17T09:55:47.322Z,11.94
2022-11-17T09:58:42.252Z,11.74
2022-11-17T10:01:13.161Z,11.73
2022-11-17T10:03:46.358Z,11.87
2022-11-17T10:06:19.440Z,11.75
2022-11-17T10:09:05.896Z,11.86
2022-11-17T10:11:38.294Z,11.89
2022-11-17T10:14:10.031Z,11.78
2022-11-17T10:16:39.932Z,11.87
2022-11-17T10:19:18.160Z,11.91
2022-11-17T10:21:54.214Z,11.66
2022-11-17T10:24:46.884Z,11.67
2022-11-17T10:27:17.311Z,11.69
2022-11-17T10:30:20.676Z,11.73
2022-11-17T10:32:53.606Z,11.70
2022-11-17T10:35:35.962Z,11.64
2022-11-17T10:38:08.595Z,11.57
2022-11-17T10:40:39.328Z,11.43
2022-11-17T10:43:12.832Z,11.60
2022-11-17T10:45:55.162Z,11.54
2022-11-17T10:48:35.908Z,11.45
2022-11-17T10:51:22.508Z,11.49
2022-11-17T10:54:14.945Z,11.44
2022-11-17T10:56:49.574Z,11.55
2022-11-17T10:59:41.770Z,10.70
2022-11-17T11:02:30.012Z,11.12
2022-11-17T11:05:10.113Z,11.36
2022-11-17T11:07:38.741Z,11.41
2022-11-17T11:10:43.722Z,11.42
2022-11-17T11:13:39.734Z,11.50
2022-11-17T11:16:11.481Z,11.63
2022-11-17T11:18:39.816Z,11.55
2022-11-17T11:21:31.823Z,11.65
2022-11-17T11:24:05.523Z,11.52
2022-11-17T11:27:01.180Z,11.28
2022-11-17T11:29:58.247Z,11.43
2022-11-17T11:33:08.198Z,11.65
2022-11-17T11:35:41.999Z,11.60
2022-11-17T11:38:18.754Z,11.57
2022-11-17T11:41:10.757Z,11.60
2022-11-17T11:43:55.681Z,11.68
2022-11-17T11:46:42.053Z,11.51
2022-11-17T11:49:31.098Z,11.38
2022-11-17T11:52:00.855Z,11.48
2022-11-17T11:54:40.449Z,11.59
2022-11-17T11:57:17.059Z,11.65
2022-11-17T12:00:04.438Z,11.69
2022-11-17T12:03:02.869Z,11.61
2022-11-17T12:05:36.617Z,11.88
2022-11-17T12:08:25.127Z,11.83
2022-11-17T12:11:26.259Z,11.66
2022-11-17T12:13:54.722Z,11.73
2022-11-17T12:16:36.943Z,11.63
2022-11-17T12:19:42.963Z,11.79
2022-11-17T12:22:34.554Z,11.69
2022-11-17T12:25:28.143Z,11.84
2022-11-17T12:27:56.455Z,11.81
2022-11-17T12:30:32.945Z,11.86
2022-11-17T12:33:10.295Z,11.60
2022-11-17T12:35:39.915Z,11.74
2022-11-17T12:38:14.153Z,11.55
2022-11-17T12:40:43.334Z,11.72
2022-11-17T12:43:23.225Z,11.69
2022-11-17T12:45:52.427Z,11.78
2022-11-17T12:48:37.784Z,11.84
2022-11-17T12:51:39.351Z,11.77
2022-11-17T12:54:21.211Z,11.62
2022-11-17T12:56:54.055Z,11.63
2022-11-17T12:59:57.429Z,11.75
2022-11-17T13:02:38.204Z,11.70
2022-11-17T13:05:16.053Z,11.72
2022-11-17T13:07:43.884Z,11.66
2022-11-17T13:10:31.852Z,11.78
2022-11-17T13:13:10.625Z,11.80
2022-11-17T13:15:40.048Z,11.68
2022-11-17T13:18:18.695Z,11.63
2022-11-17T13:20:49.128Z,11.70
2022-11-17T13:23:26.435Z,11.58
2022-11-17T13:26:11.427Z,11.67
2022-11-17T13:28:39.237Z,11.74
2022-11-17T13:31:16.659Z,11.66
2022-11-17T13:33:56.084Z,11.48
2022-11-17T13:36:27.221Z,11.35
2022-11-17T13:38:57.449Z,11.36
2022-11-17T13:41:26.035Z,11.40
2022-11-17T13:43:55.331Z,11.35
2022-11-17T13:46:23.076Z,11.42
2022-11-17T13:48:51.761Z,11.02
2022-11-17T13:51:24.777Z,11.14
2022-11-17T13:54:13.618Z,11.32
2022-11-17T13:56:49.910Z,11.39
2022-11-17T13:59:37.738Z,11.42
2022-11-17T14:02:19.162Z,11.49
2022-11-17T14:05:16.816Z,11.67
2022-11-17T14:07:45.978Z,11.48
2022-11-17T14:10:28.786Z,11.32
2022-11-17T14:13:05.451Z,11.48
2022-11-17T14:15:39.869Z,11.50
2022-11-17T14:18:39.300Z,11.26
2022-11-17T14:21:16.213Z,11.27
2022-11-17T14:24:07.473Z,11.17
2022-11-17T14:26:41.705Z,11.63
2022-11-17T14:29:12.784Z,11.62
2022-11-17T14:31:41.343Z,11.58
2022-11-17T14:34:29.097Z,11.48
2022-11-17T14:37:17.699Z,11.60
2022-11-17T14:40:07.772Z,11.73
2022-11-17T14:42:57.983Z,11.72
2022-11-17T14:45:45.895Z,11.72
2022-11-17T14:48:19.335Z,11.55
2022-11-17T14:50:57.752Z,11.64
2022-11-17T14:53:27.027Z,11.45
2022-11-17T14:55:54.809Z,11.60
2022-11-17T14:58:22.554Z,11.63
2022-11-17T15:00:51.007Z,11.37
2022-11-17T15:03:18.710Z,11.11
2022-11-17T15:05:46.482Z,11.38
2022-11-17T15:08:14.853Z,11.26
2022-11-17T15:10:46.835Z,11.12
2022-11-17T15:13:38.104Z,11.09
2022-11-17T15:16:07.209Z,10.71
2022-11-17T15:18:36.513Z,10.86
2022-11-17T15:21:10.685Z,10.93
2022-11-17T15:23:41.238Z,11.15
2022-11-17T15:26:12.988Z,11.18
2022-11-17T15:28:41.689Z,11.11
2022-11-17T15:31:15.751Z,11.08
2022-11-17T15:33:46.813Z,11.26
2022-11-17T15:36:20.727Z,11.27
2022-11-17T15:38:49.414Z,10.97
2022-11-17T15:41:17.402Z,10.97
2022-11-17T15:43:45.897Z,11.15
2022-11-17T15:46:18.351Z,11.09
2022-11-17T15:48:49.220Z,11.05
2022-11-17T15:51:25.381Z,11.37
2022-11-17T15:54:00.146Z,11.55
2022-11-17T15:56:30.803Z,11.51
2022-11-17T15:59:05.044Z,11.54
2022-11-17T16:01:36.545Z,11.09
2022-11-17T16:04:13.359Z,11.26
2022-11-17T16:06:43.114Z,10.99
2022-11-17T16:09:15.207Z,10.98
2022-11-17T16:11:43.975Z,10.82
2022-11-17T16:14:12.470Z,11.17
2022-11-17T16:16:40.300Z,11.16
2022-11-17T16:19:08.353Z,11.46
2022-11-17T16:21:36.433Z,11.50
2022-11-17T16:24:04.418Z,11.28
2022-11-17T16:26:33.955Z,10.77
2022-11-17T16:29:05.270Z,10.93
2022-11-17T16:31:34.911Z,11.21
2022-11-17T16:34:14.290Z,11.20
2022-11-17T16:36:43.421Z,10.99
2022-11-17T16:39:20.200Z,11.17
2022-11-17T16:41:51.383Z,10.95
2022-11-17T16:44:20.501Z,10.86
2022-11-17T16:46:50.031Z,10.97
2022-11-17T16:49:19.338Z,11.30
2022-11-17T16:51:52.803Z,11.16
2022-11-17T16:54:21.418Z,10.92
2022-11-17T16:56:49.550Z,10.82
2022-11-17T16:59:17.493Z,10.87
2022-11-17T17:01:45.786Z,11.18
2022-11-17T17:04:38.856Z,11.23
2022-11-17T17:07:06.733Z,11.11
2022-11-17T17:09:35.002Z,11.01
2022-11-17T17:12:02.712Z,10.99
2022-11-17T17:14:30.633Z,10.53
2022-11-17T17:16:58.883Z,10.77
2022-11-17T17:19:27.418Z,10.93
2022-11-17T17:21:55.348Z,10.90
2022-11-17T17:24:23.488Z,10.91
2022-11-17T17:26:51.117Z,10.94
2022-11-17T17:29:19.761Z,11.04
2022-11-17T17:31:47.828Z,10.78
2022-11-17T17:34:22.829Z,10.66
2022-11-17T17:37:50.775Z,10.43
2022-11-17T17:41:05.549Z,10.30
2022-11-17T17:44:16.100Z,10.10
2022-11-17T17:47:08.833Z,10.43
2022-11-17T17:49:37.447Z,10.62
2022-11-17T17:55:32.846Z,10.71
2022-11-17T17:58:42.263Z,10.83
2022-11-17T18:01:37.123Z,10.68
2022-11-17T18:04:25.123Z,10.94
2022-11-17T18:06:53.101Z,10.99
2022-11-17T18:09:24.864Z,10.72
2022-11-17T18:11:52.722Z,10.49
2022-11-17T18:14:24.472Z,10.74
2022-11-17T18:16:54.283Z,10.32
2022-11-17T18:19:31.428Z,10.07
2022-11-17T18:22:05.448Z,10.25
2022-11-17T18:24:40.891Z,9.84
2022-11-17T18:27:10.134Z,10.19
2022-11-17T18:29:38.061Z,10.21
2022-11-17T18:32:05.874Z,10.27
2022-11-17T18:34:34.610Z,10.31
2022-11-17T18:37:02.573Z,10.79
2022-11-17T18:39:32.525Z,10.63
2022-11-17T18:42:00.789Z,10.36
2022-11-17T18:44:28.927Z,10.34
2022-11-17T18:47:01.343Z,9.96
2022-11-17T18:49:31.563Z,10.30
2022-11-17T18:51:59.727Z,10.46
2022-11-17T18:54:27.627Z,10.39
2022-11-17T18:56:56.328Z,10.52
2022-11-17T18:59:24.326Z,10.53
2022-11-17T19:01:53.991Z,10.62
2022-11-17T19:04:22.234Z,10.56
2022-11-17T19:06:50.968Z,10.49
2022-11-17T19:09:19.600Z,10.60
2022-11-17T19:11:47.943Z,10.70
2022-11-17T19:14:15.739Z,10.75
2022-11-17T19:16:45.312Z,10.72
2022-11-17T19:19:14.553Z,10.57
2022-11-17T19:21:43.583Z,10.57
2022-11-17T19:24:11.975Z,10.64
2022-11-17T19:26:40.308Z,10.67
2022-11-17T19:29:17.255Z,10.79
2022-11-17T19:31:47.646Z,10.89
2022-11-17T19:34:16.002Z,10.89
2022-11-17T19:36:44.935Z,10.98
2022-11-17T19:39:14.257Z,10.91
2022-11-17T19:41:47.356Z,11.07
2022-11-17T19:44:15.662Z,11.08
2022-11-17T19:46:43.562Z,11.09
2022-11-17T19:49:12.789Z,11.00
2022-11-17T19:51:42.510Z,11.01
2022-11-17T19:54:14.323Z,10.81
2022-11-17T19:56:42.580Z,10.88
2022-11-17T19:59:15.676Z,10.92
2022-11-17T20:01:45.228Z,11.13
2022-11-17T20:04:13.404Z,11.05
2022-11-17T20:06:41.348Z,10.81
2022-11-17T20:09:13.902Z,10.62
2022-11-17T20:11:42.551Z,10.63
2022-11-17T20:14:10.956Z,10.77
2022-11-17T20:16:38.910Z,10.16
2022-11-17T20:19:07.027Z,10.40
2022-11-17T20:21:34.979Z,10.47
2022-11-17T20:24:03.359Z,10.72
2022-11-17T20:26:35.403Z,10.73
2022-11-17T20:29:05.435Z,10.72
2022-11-17T20:31:35.403Z,10.49
2022-11-17T20:34:05.571Z,10.70
2022-11-17T20:36:35.359Z,10.85
2022-11-17T20:39:05.816Z,10.65
2022-11-17T20:41:34.156Z,10.54
2022-11-17T20:44:03.407Z,10.72
2022-11-17T20:46:31.391Z,10.73
2022-11-17T20:48:59.850Z,10.32
2022-11-17T20:51:28.221Z,10.55
2022-11-17T20:53:56.127Z,11.00
2022-11-17T20:56:24.187Z,10.62
2022-11-17T20:58:51.865Z,10.64
2022-11-17T21:01:21.813Z,10.62
2022-11-17T21:03:50.388Z,10.55
2022-11-17T21:06:19.812Z,10.61
2022-11-17T21:08:47.589Z,10.88
2022-11-17T21:11:36.672Z,11.01
2022-11-17T21:14:05.695Z,11.11
2022-11-17T21:16:34.893Z,10.99
2022-11-17T21:19:02.702Z,10.89
2022-11-17T21:21:30.441Z,10.92
2022-11-17T21:23:58.618Z,10.85
2022-11-17T21:26:27.857Z,10.96
2022-11-17T21:28:55.768Z,10.92
2022-11-17T21:31:26.868Z,11.12
2022-11-17T21:33:59.778Z,10.95
2022-11-17T21:36:29.833Z,11.04
2022-11-17T21:38:58.316Z,10.77
2022-11-17T21:41:30.974Z,11.06
2022-11-17T21:44:00.558Z,10.90
2022-11-17T21:46:31.435Z,10.44
2022-11-17T21:49:00.000Z,10.60
2022-11-17T21:51:30.085Z,10.56
2022-11-17T21:54:00.218Z,10.91
2022-11-17T21:56:29.245Z,11.07
2022-11-17T21:59:02.504Z,11.01
2022-11-17T22:01:31.183Z,10.77
2022-11-17T22:03:59.197Z,10.68
2022-11-17T22:06:27.509Z,10.63
2022-11-17T22:08:56.495Z,10.84
2022-11-17T22:11:37.465Z,10.33
2022-11-17T22:14:12.684Z,10.62
2022-11-17T22:16:48.391Z,10.52
2022-11-17T22:19:17.628Z,10.73
2022-11-17T22:21:48.656Z,10.50
2022-11-17T22:24:16.410Z,10.60
2022-11-17T22:26:44.813Z,10.59
2022-11-17T22:29:15.863Z,10.48
2022-11-17T22:31:44.678Z,10.64
2022-11-17T22:34:13.766Z,10.79
2022-11-17T22:36:41.731Z,10.92
2022-11-17T22:39:09.541Z,10.87
2022-11-17T22:41:37.699Z,10.89
2022-11-17T22:44:06.399Z,10.85
2022-11-17T22:46:35.006Z,10.95
2022-11-17T22:49:03.367Z,11.01
2022-11-17T22:51:49.677Z,11.10
2022-11-17T22:54:17.705Z,11.05
2022-11-17T22:56:46.175Z,10.89
2022-11-17T22:59:13.854Z,10.75
2022-11-17T23:01:42.133Z,10.81
2022-11-17T23:04:11.448Z,11.03
2022-11-17T23:06:39.163Z,11.01
2022-11-17T23:09:07.412Z,10.81
2022-11-17T23:11:37.911Z,10.79
2022-11-17T23:14:08.146Z,10.85
2022-11-17T23:16:37.699Z,10.89
2022-11-17T23:19:06.532Z,11.11
2022-11-17T23:21:34.251Z,10.70
2022-11-17T23:24:02.357Z,10.53
2022-11-17T23:26:30.022Z,10.57
2022-11-17T23:28:58.328Z,10.86
2022-11-17T23:31:28.001Z,10.84
2022-11-17T23:33:55.640Z,10.80
2022-11-17T23:36:24.134Z,10.89
2022-11-17T23:38:54.270Z,10.82
2022-11-17T23:41:22.381Z,10.80
2022-11-17T23:43:51.755Z,10.57
2022-11-17T23:46:22.732Z,10.87
2022-11-17T23:48:50.441Z,10.69
2022-11-17T23:51:20.762Z,10.71
2022-11-17T23:53:49.720Z,10.56
2022-11-17T23:56:19.636Z,10.60
2022-11-17T23:58:48.119Z,10.41
